createdAt,value
2019-03-26T00:00:08.636Z,24.77
2019-03-26T00:02:37.199Z,27.17
2019-03-26T00:05:06.589Z,26.53
2019-03-26T00:07:35.219Z,26.97
2019-03-26T00:10:04.429Z,27.87
2019-03-26T00:12:33.024Z,23.67
2019-03-26T00:15:01.586Z,25.70
2019-03-26T00:17:30.142Z,30.00
2019-03-26T00:19:58.683Z,26.10
2019-03-26T00:22:27.236Z,23.43
2019-03-26T00:24:55.935Z,28.30
2019-03-26T00:27:24.890Z,30.17
2019-03-26T00:29:53.595Z,24.33
2019-03-26T00:32:23.615Z,26.97
2019-03-26T00:34:52.338Z,27.07
2019-03-26T00:37:20.811Z,27.93
2019-03-26T00:39:49.358Z,21.27
2019-03-26T00:42:18.346Z,30.30
2019-03-26T00:44:46.946Z,28.27
2019-03-26T00:47:15.467Z,24.13
2019-03-26T00:49:44.009Z,30.43
2019-03-26T00:52:12.598Z,25.47
2019-03-26T00:54:41.134Z,28.60
2019-03-26T00:57:09.758Z,28.03
2019-03-26T00:59:38.391Z,31.40
2019-03-26T01:02:07.069Z,28.20
2019-03-26T01:04:35.722Z,23.60
2019-03-26T01:07:04.413Z,30.63
2019-03-26T01:09:33.048Z,26.27
2019-03-26T01:12:01.773Z,26.60
2019-03-26T01:14:31.577Z,24.27
2019-03-26T01:17:03.220Z,28.03
2019-03-26T01:19:31.867Z,31.80
2019-03-26T01:22:00.481Z,30.87
2019-03-26T01:24:29.123Z,29.83
2019-03-26T01:26:57.826Z,30.00
2019-03-26T01:29:26.428Z,25.10
2019-03-26T01:31:55.140Z,26.33
2019-03-26T01:34:23.711Z,27.70
2019-03-26T01:36:52.381Z,24.77
2019-03-26T01:39:20.852Z,26.70
2019-03-26T01:41:49.396Z,25.57
2019-03-26T01:44:18.063Z,22.57
2019-03-26T01:46:46.699Z,24.57
2019-03-26T01:49:15.435Z,29.23
2019-03-26T01:51:44.071Z,29.43
2019-03-26T01:54:12.599Z,26.80
2019-03-26T01:56:41.085Z,25.00
2019-03-26T01:59:09.627Z,24.70
2019-03-26T02:01:38.325Z,24.37
2019-03-26T02:04:06.834Z,25.33
2019-03-26T02:06:36.493Z,26.47
2019-03-26T02:09:06.189Z,28.47
2019-03-26T02:11:34.884Z,25.63
2019-03-26T02:14:03.569Z,24.87
2019-03-26T02:16:32.236Z,23.93
2019-03-26T02:19:00.790Z,25.17
2019-03-26T02:21:29.374Z,25.33
2019-03-26T02:23:58.067Z,25.77
2019-03-26T02:26:26.669Z,22.03
2019-03-26T02:28:55.318Z,31.13
2019-03-26T02:31:23.887Z,24.77
2019-03-26T02:33:52.538Z,24.70
2019-03-26T02:36:21.126Z,26.67
2019-03-26T02:38:49.766Z,27.77
2019-03-26T02:41:18.302Z,22.63
2019-03-26T02:43:46.772Z,25.13
2019-03-26T02:46:15.321Z,25.87
2019-03-26T02:48:43.924Z,26.30
2019-03-26T02:51:12.777Z,25.20
2019-03-26T02:53:41.414Z,20.80
2019-03-26T02:56:10.265Z,23.90
2019-03-26T02:58:38.868Z,23.90
2019-03-26T03:01:07.635Z,21.93
2019-03-26T03:03:36.195Z,20.17
2019-03-26T03:06:04.731Z,24.30
2019-03-26T03:08:33.271Z,19.23
2019-03-26T03:11:01.885Z,19.67
2019-03-26T03:13:30.483Z,21.20
2019-03-26T03:15:59.110Z,23.00
2019-03-26T03:18:27.783Z,22.90
2019-03-26T03:21:03.690Z,20.83
2019-03-26T03:23:32.411Z,25.20
2019-03-26T03:26:01.203Z,19.60
2019-03-26T03:28:29.715Z,17.37
2019-03-26T03:30:58.255Z,18.93
2019-03-26T03:33:26.944Z,20.87
2019-03-26T03:35:55.651Z,22.60
2019-03-26T03:38:24.301Z,18.07
2019-03-26T03:40:52.887Z,18.63
2019-03-26T03:43:21.439Z,21.27
2019-03-26T03:45:50.348Z,18.20
2019-03-26T03:48:19.367Z,19.87
2019-03-26T03:50:48.076Z,19.23
2019-03-26T03:53:19.258Z,17.87
2019-03-26T03:55:50.870Z,16.20
2019-03-26T03:58:22.045Z,14.53
2019-03-26T04:00:50.773Z,15.30
2019-03-26T04:03:19.342Z,16.90
2019-03-26T04:05:47.942Z,18.37
2019-03-26T04:08:16.630Z,15.97
2019-03-26T04:10:45.290Z,16.93
2019-03-26T04:13:16.132Z,16.93
2019-03-26T04:15:44.462Z,14.63
2019-03-26T04:18:13.233Z,19.00
2019-03-26T04:20:41.821Z,15.77
2019-03-26T04:23:10.490Z,16.83
2019-03-26T04:25:39.153Z,17.33
2019-03-26T04:28:07.897Z,23.33
2019-03-26T04:30:38.832Z,30.87
2019-03-26T04:33:07.157Z,28.30
2019-03-26T04:35:35.823Z,29.40
2019-03-26T04:38:04.928Z,25.77
2019-03-26T04:40:33.617Z,32.33
2019-03-26T04:43:06.171Z,27.07
2019-03-26T04:45:34.801Z,27.20
2019-03-26T04:48:03.518Z,31.73
2019-03-26T04:50:32.123Z,30.37
2019-03-26T04:53:00.782Z,26.80
2019-03-26T04:55:29.319Z,33.97
2019-03-26T04:57:57.924Z,29.53
2019-03-26T05:00:26.550Z,34.33
2019-03-26T05:02:55.156Z,34.73
2019-03-26T05:05:23.835Z,34.97
2019-03-26T05:07:52.309Z,38.37
2019-03-26T05:10:20.974Z,38.97
2019-03-26T05:12:49.513Z,38.00
2019-03-26T05:15:18.057Z,36.43
2019-03-26T05:17:46.684Z,35.60
2019-03-26T05:20:15.344Z,37.10
2019-03-26T05:22:44.065Z,35.30
2019-03-26T05:25:13.378Z,32.97
2019-03-26T05:27:45.670Z,35.83
2019-03-26T05:30:12.453Z,35.20
2019-03-26T05:32:40.993Z,33.77
2019-03-26T05:35:11.214Z,34.80
2019-03-26T05:37:39.822Z,37.93
2019-03-26T05:40:09.849Z,33.73
2019-03-26T05:42:38.752Z,33.70
2019-03-26T05:45:09.315Z,31.03
2019-03-26T05:47:37.897Z,26.13
2019-03-26T05:50:07.943Z,31.80
2019-03-26T05:52:37.293Z,31.00
2019-03-26T05:55:07.215Z,30.87
2019-03-26T05:57:37.006Z,32.70
2019-03-26T06:00:14.996Z,33.60
2019-03-26T06:02:43.647Z,33.60
2019-03-26T06:05:15.320Z,35.13
2019-03-26T06:07:43.931Z,30.97
2019-03-26T06:10:13.035Z,33.47
2019-03-26T06:12:41.685Z,29.70
2019-03-26T06:15:11.001Z,30.30
2019-03-26T06:17:39.648Z,34.60
2019-03-26T06:20:10.825Z,31.67
2019-03-26T06:22:39.759Z,31.57
2019-03-26T06:25:08.714Z,28.60
2019-03-26T06:27:37.756Z,39.17
2019-03-26T06:30:09.561Z,31.40
2019-03-26T06:32:38.238Z,28.53
2019-03-26T06:35:09.122Z,36.47
2019-03-26T06:37:38.030Z,28.07
2019-03-26T06:40:11.415Z,35.53
2019-03-26T06:42:39.968Z,31.07
2019-03-26T06:45:12.486Z,31.90
2019-03-26T06:47:41.125Z,31.67
2019-03-26T06:50:11.437Z,33.87
2019-03-26T06:52:40.058Z,33.53
2019-03-26T06:55:08.864Z,31.80
2019-03-26T06:57:37.996Z,32.30
2019-03-26T07:00:11.640Z,30.50
2019-03-26T07:02:40.465Z,35.83
2019-03-26T07:05:09.459Z,34.77
2019-03-26T07:07:38.095Z,32.43
2019-03-26T07:10:08.530Z,29.60
2019-03-26T07:12:37.070Z,33.75
2019-03-26T07:15:08.579Z,39.33
2019-03-26T07:17:37.777Z,34.77
2019-03-26T07:20:09.693Z,33.93
2019-03-26T07:22:38.766Z,36.63
2019-03-26T07:25:09.467Z,32.23
2019-03-26T07:27:38.416Z,31.43
2019-03-26T07:30:09.684Z,34.17
2019-03-26T07:32:38.292Z,32.20
2019-03-26T07:35:08.277Z,35.88
2019-03-26T07:37:45.302Z,34.53
2019-03-26T07:40:08.297Z,37.77
2019-03-26T07:42:36.834Z,32.07
2019-03-26T07:45:09.440Z,38.77
2019-03-26T07:47:38.065Z,34.18
2019-03-26T07:50:08.018Z,31.77
2019-03-26T07:52:36.576Z,38.10
2019-03-26T07:55:07.379Z,33.98
2019-03-26T07:57:36.179Z,30.27
2019-03-26T08:00:11.090Z,35.17
2019-03-26T08:02:39.774Z,35.73
2019-03-26T08:05:09.763Z,34.20
2019-03-26T08:07:38.369Z,32.47
2019-03-26T08:10:10.698Z,41.03
2019-03-26T08:12:39.335Z,33.75
2019-03-26T08:15:08.968Z,42.30
2019-03-26T08:17:37.504Z,36.63
2019-03-26T08:20:07.995Z,33.97
2019-03-26T08:22:36.548Z,30.03
2019-03-26T08:25:07.459Z,33.00
2019-03-26T08:27:36.069Z,30.57
2019-03-26T08:30:08.779Z,30.43
2019-03-26T08:32:37.462Z,33.57
2019-03-26T08:35:07.108Z,31.53
2019-03-26T08:37:35.715Z,35.57
2019-03-26T08:40:07.461Z,33.73
2019-03-26T08:42:35.997Z,31.97
2019-03-26T08:45:07.347Z,33.90
2019-03-26T08:47:36.552Z,39.00
2019-03-26T08:50:07.162Z,33.48
2019-03-26T08:52:35.761Z,27.70
2019-03-26T08:55:06.159Z,35.58
2019-03-26T08:57:34.768Z,33.63
2019-03-26T09:00:03.732Z,32.70
2019-03-26T09:02:32.197Z,32.35
2019-03-26T09:05:00.676Z,35.13
2019-03-26T09:07:29.292Z,29.70
2019-03-26T09:09:57.840Z,31.80
2019-03-26T09:12:26.445Z,32.80
2019-03-26T09:14:54.986Z,30.77
2019-03-26T09:17:23.598Z,35.60
2019-03-26T09:19:52.215Z,35.73
2019-03-26T09:22:20.745Z,34.13
2019-03-26T09:24:51.533Z,32.67
2019-03-26T09:27:20.061Z,32.90
2019-03-26T09:29:48.700Z,37.20
2019-03-26T09:32:17.228Z,34.98
2019-03-26T09:34:45.815Z,34.63
2019-03-26T09:37:16.074Z,35.47
2019-03-26T09:39:44.545Z,38.83
2019-03-26T09:42:13.080Z,32.88
2019-03-26T09:44:41.547Z,31.87
2019-03-26T09:47:16.098Z,34.03
2019-03-26T09:49:40.347Z,29.60
2019-03-26T09:52:08.813Z,34.35
2019-03-26T09:54:37.413Z,38.30
2019-03-26T09:57:06.019Z,34.27
2019-03-26T09:59:34.553Z,34.37
2019-03-26T10:02:03.099Z,33.20
2019-03-26T10:04:31.759Z,29.37
2019-03-26T10:07:00.365Z,34.60
2019-03-26T10:09:28.979Z,32.50
2019-03-26T10:11:59.455Z,31.90
2019-03-26T10:14:28.006Z,39.38
2019-03-26T10:16:56.627Z,31.05
2019-03-26T10:19:25.167Z,44.07
2019-03-26T10:21:54.630Z,35.83
2019-03-26T10:24:23.167Z,35.67
2019-03-26T10:26:51.984Z,30.63
2019-03-26T10:29:30.213Z,28.73
2019-03-26T10:31:50.875Z,30.23
2019-03-26T10:34:19.680Z,31.37
2019-03-26T10:36:48.786Z,29.77
2019-03-26T10:39:17.394Z,26.50
2019-03-26T10:41:46.021Z,24.02
2019-03-26T10:44:14.996Z,24.72
2019-03-26T10:46:44.643Z,24.23
2019-03-26T10:49:13.391Z,23.62
2019-03-26T10:51:42.032Z,22.40
2019-03-26T10:54:10.654Z,25.17
2019-03-26T10:56:39.261Z,23.90
2019-03-26T10:59:07.889Z,20.80
2019-03-26T11:01:36.500Z,22.02
2019-03-26T11:04:07.748Z,25.45
2019-03-26T11:06:35.495Z,25.72
2019-03-26T11:09:18.797Z,22.50
2019-03-26T11:11:35.388Z,21.00
2019-03-26T11:14:04.291Z,19.42
2019-03-26T11:16:32.923Z,18.40
2019-03-26T11:19:01.462Z,24.55
2019-03-26T11:21:30.044Z,19.77
2019-03-26T11:23:58.583Z,20.00
2019-03-26T11:26:27.193Z,18.62
2019-03-26T11:28:55.796Z,18.40
2019-03-26T11:31:24.398Z,19.82
2019-03-26T11:33:52.947Z,17.00
2019-03-26T11:36:21.476Z,17.42
2019-03-26T11:38:50.126Z,16.15
2019-03-26T11:41:18.721Z,18.02
2019-03-26T11:43:47.365Z,14.38
2019-03-26T11:46:16.002Z,18.45
2019-03-26T11:48:44.639Z,18.07
2019-03-26T11:51:13.248Z,18.27
2019-03-26T11:53:41.881Z,20.08
2019-03-26T11:56:10.515Z,18.95
2019-03-26T11:58:39.043Z,16.45
2019-03-26T12:01:07.779Z,20.20
2019-03-26T12:03:36.387Z,15.70
2019-03-26T12:06:05.014Z,16.97
2019-03-26T12:08:34.871Z,16.65
2019-03-26T12:11:03.407Z,14.95
2019-03-26T12:13:31.970Z,15.68
2019-03-26T12:16:00.500Z,25.62
2019-03-26T12:18:29.041Z,19.48
2019-03-26T12:20:57.511Z,15.70
2019-03-26T12:23:26.107Z,15.30
2019-03-26T12:25:55.223Z,13.70
2019-03-26T12:28:23.802Z,13.35
2019-03-26T12:30:52.481Z,15.85
2019-03-26T12:33:21.042Z,17.23
2019-03-26T12:35:52.484Z,21.10
2019-03-26T12:38:21.398Z,15.83
2019-03-26T12:40:53.488Z,15.55
2019-03-26T12:43:22.229Z,16.40
2019-03-26T12:45:52.342Z,17.10
2019-03-26T12:48:21.091Z,17.73
2019-03-26T12:50:49.690Z,15.78
2019-03-26T12:53:18.300Z,18.70
2019-03-26T12:55:46.841Z,20.40
2019-03-26T12:58:15.469Z,13.80
2019-03-26T13:00:44.051Z,15.48
2019-03-26T13:03:12.657Z,18.55
2019-03-26T13:05:41.196Z,23.52
2019-03-26T13:08:09.843Z,14.93
2019-03-26T13:10:38.541Z,15.75
2019-03-26T13:13:07.148Z,17.73
2019-03-26T13:15:35.762Z,16.07
2019-03-26T13:18:04.376Z,14.38
2019-03-26T13:20:32.966Z,13.55
2019-03-26T13:23:02.695Z,16.25
2019-03-26T13:25:31.303Z,15.68
2019-03-26T13:27:59.851Z,15.65
2019-03-26T13:30:28.452Z,16.73
2019-03-26T13:32:57.026Z,15.70
2019-03-26T13:35:25.655Z,14.13
2019-03-26T13:37:54.278Z,13.35
2019-03-26T13:40:27.489Z,14.33
2019-03-26T13:42:53.257Z,14.83
2019-03-26T13:45:21.831Z,16.40
2019-03-26T13:47:50.374Z,14.13
2019-03-26T13:50:33.992Z,14.98
2019-03-26T13:52:50.041Z,15.63
2019-03-26T13:55:19.448Z,14.33
2019-03-26T13:57:48.083Z,15.78
2019-03-26T14:00:19.600Z,15.05
2019-03-26T14:02:48.199Z,16.37
2019-03-26T14:05:27.099Z,28.40
2019-03-26T14:07:55.703Z,17.40
2019-03-26T14:10:24.574Z,14.50
2019-03-26T14:12:53.189Z,17.95
2019-03-26T14:15:24.335Z,13.78
2019-03-26T14:17:52.954Z,14.10
2019-03-26T14:20:21.955Z,14.20
2019-03-26T14:22:50.595Z,14.35
2019-03-26T14:25:19.211Z,13.18
2019-03-26T14:27:47.845Z,14.68
2019-03-26T14:30:20.626Z,13.80
2019-03-26T14:32:49.054Z,16.07
2019-03-26T14:35:19.967Z,12.68
2019-03-26T14:37:51.470Z,14.15
2019-03-26T14:40:18.967Z,13.20
2019-03-26T14:42:47.503Z,11.80
2019-03-26T14:45:16.105Z,13.30
2019-03-26T14:47:44.709Z,14.68
2019-03-26T14:50:16.680Z,12.68
2019-03-26T14:52:45.182Z,14.58
2019-03-26T14:55:13.787Z,17.57
2019-03-26T14:57:42.337Z,17.37
2019-03-26T15:00:11.619Z,16.70
2019-03-26T15:02:41.766Z,14.55
2019-03-26T15:05:11.330Z,13.03
2019-03-26T15:07:39.945Z,19.17
2019-03-26T15:10:09.123Z,14.80
2019-03-26T15:12:37.768Z,12.37
2019-03-26T15:15:07.593Z,13.55
2019-03-26T15:17:36.203Z,12.47
2019-03-26T15:20:07.353Z,12.13
2019-03-26T15:22:35.976Z,12.53
2019-03-26T15:25:10.545Z,11.90
2019-03-26T15:27:39.006Z,11.05
2019-03-26T15:30:09.819Z,12.98
2019-03-26T15:32:38.380Z,13.62
2019-03-26T15:35:07.861Z,11.43
2019-03-26T15:37:36.465Z,9.88
2019-03-26T15:40:08.033Z,14.00
2019-03-26T15:42:36.568Z,14.55
2019-03-26T15:45:08.104Z,15.40
2019-03-26T15:47:36.708Z,14.83
2019-03-26T15:50:07.010Z,10.68
2019-03-26T15:52:35.624Z,12.82
2019-03-26T15:55:05.332Z,13.95
2019-03-26T15:57:33.941Z,12.68
2019-03-26T16:00:02.675Z,12.28
2019-03-26T16:02:31.239Z,15.75
2019-03-26T16:04:59.777Z,14.80
2019-03-26T16:07:28.275Z,16.00
2019-03-26T16:09:56.905Z,17.48
2019-03-26T16:12:25.555Z,15.45
2019-03-26T16:14:54.188Z,14.03
2019-03-26T16:17:22.749Z,13.35
2019-03-26T16:19:51.373Z,16.07
2019-03-26T16:22:19.901Z,16.80
2019-03-26T16:24:48.540Z,14.80
2019-03-26T16:27:17.196Z,14.35
2019-03-26T16:29:45.678Z,13.35
2019-03-26T16:32:14.297Z,13.03
2019-03-26T16:34:42.774Z,12.78
2019-03-26T16:37:11.374Z,14.80
2019-03-26T16:39:40.291Z,15.03
2019-03-26T16:42:08.826Z,13.32
2019-03-26T16:44:37.500Z,13.25
2019-03-26T16:47:06.040Z,11.90
2019-03-26T16:49:34.579Z,14.93
2019-03-26T16:52:06.301Z,13.32
2019-03-26T16:54:34.837Z,13.83
2019-03-26T16:57:03.433Z,10.95
2019-03-26T16:59:32.125Z,12.87
2019-03-26T17:02:00.733Z,14.03
2019-03-26T17:04:29.318Z,15.18
2019-03-26T17:06:58.031Z,12.97
2019-03-26T17:09:26.576Z,12.80
2019-03-26T17:12:03.243Z,13.55
2019-03-26T17:14:25.618Z,13.70
2019-03-26T17:16:54.166Z,16.12
2019-03-26T17:19:22.772Z,15.40
2019-03-26T17:21:51.392Z,14.40
2019-03-26T17:24:19.994Z,18.10
2019-03-26T17:26:48.540Z,13.18
2019-03-26T17:29:17.072Z,14.40
2019-03-26T17:31:45.696Z,14.28
2019-03-26T17:34:14.297Z,14.27
2019-03-26T17:36:42.974Z,14.63
2019-03-26T17:39:11.448Z,15.32
2019-03-26T17:41:40.058Z,14.20
2019-03-26T17:44:08.654Z,15.65
2019-03-26T17:46:37.267Z,18.57
2019-03-26T17:49:05.880Z,24.00
2019-03-26T17:51:34.518Z,23.10
2019-03-26T17:54:03.186Z,17.37
2019-03-26T17:56:31.783Z,21.00
2019-03-26T17:59:00.392Z,26.83
2019-03-26T18:01:29.298Z,30.77
2019-03-26T18:03:57.976Z,29.03
2019-03-26T18:06:26.587Z,24.67
2019-03-26T18:08:55.244Z,20.00
2019-03-26T18:11:23.849Z,23.33
2019-03-26T18:13:52.565Z,21.00
2019-03-26T18:16:21.085Z,27.80
2019-03-26T18:18:49.819Z,27.67
2019-03-26T18:21:18.459Z,25.67
2019-03-26T18:23:47.090Z,21.50
2019-03-26T18:26:15.725Z,19.83
2019-03-26T18:28:44.340Z,24.50
2019-03-26T18:31:13.022Z,20.10
2019-03-26T18:33:41.678Z,22.67
2019-03-26T18:36:11.738Z,24.30
2019-03-26T18:38:40.404Z,24.80
2019-03-26T18:41:09.125Z,31.00
2019-03-26T18:43:37.749Z,25.27
2019-03-26T18:46:06.353Z,28.80
2019-03-26T18:48:36.175Z,23.87
2019-03-26T18:51:04.856Z,26.70
2019-03-26T18:53:33.474Z,23.13
2019-03-26T18:56:02.159Z,22.50
2019-03-26T18:58:30.800Z,25.73
2019-03-26T19:00:59.344Z,20.03
2019-03-26T19:03:27.973Z,17.83
2019-03-26T19:05:56.556Z,17.73
2019-03-26T19:08:25.213Z,19.03
2019-03-26T19:10:53.792Z,24.17
2019-03-26T19:13:22.401Z,17.10
2019-03-26T19:15:50.981Z,23.63
2019-03-26T19:18:19.708Z,18.23
2019-03-26T19:21:00.970Z,17.23
2019-03-26T19:23:18.650Z,22.10
2019-03-26T19:25:47.238Z,18.77
2019-03-26T19:28:15.847Z,19.67
2019-03-26T19:30:44.460Z,19.03
2019-03-26T19:33:13.108Z,17.10
2019-03-26T19:35:41.719Z,14.23
2019-03-26T19:38:10.253Z,18.87
2019-03-26T19:40:38.910Z,24.57
2019-03-26T19:43:11.037Z,16.10
2019-03-26T19:45:37.803Z,13.10
2019-03-26T19:48:06.507Z,15.37
2019-03-26T19:50:35.148Z,18.60
2019-03-26T19:53:07.193Z,18.10
2019-03-26T19:55:36.271Z,16.07
2019-03-26T19:58:04.946Z,19.57
2019-03-26T20:00:33.713Z,15.20
2019-03-26T20:03:02.330Z,13.17
2019-03-26T20:05:30.957Z,12.93
2019-03-26T20:07:59.564Z,13.37
2019-03-26T20:10:28.401Z,12.57
2019-03-26T20:12:57.048Z,20.27
2019-03-26T20:15:25.733Z,16.60
2019-03-26T20:17:54.421Z,15.70
2019-03-26T20:20:23.535Z,17.33
2019-03-26T20:22:52.254Z,14.00
2019-03-26T20:25:20.869Z,15.70
2019-03-26T20:27:54.970Z,15.77
2019-03-26T20:30:23.869Z,15.60
2019-03-26T20:32:52.525Z,17.43
2019-03-26T20:35:21.136Z,19.30
2019-03-26T20:37:49.781Z,17.13
2019-03-26T20:40:18.511Z,19.07
2019-03-26T20:42:47.143Z,20.10
2019-03-26T20:45:16.261Z,18.37
2019-03-26T20:47:44.875Z,20.93
2019-03-26T20:50:14.004Z,19.53
2019-03-26T20:52:42.656Z,23.13
2019-03-26T20:55:12.869Z,22.97
2019-03-26T20:57:41.615Z,22.43
2019-03-26T21:00:15.705Z,20.47
2019-03-26T21:02:44.244Z,20.57
2019-03-26T21:05:12.950Z,25.10
2019-03-26T21:07:41.524Z,22.57
2019-03-26T21:10:10.846Z,24.07
2019-03-26T21:12:39.594Z,22.50
2019-03-26T21:15:10.492Z,25.83
2019-03-26T21:17:39.115Z,22.80
2019-03-26T21:20:09.311Z,24.17
2019-03-26T21:22:37.877Z,29.40
2019-03-26T21:25:08.639Z,26.20
2019-03-26T21:27:37.411Z,23.40
2019-03-26T21:30:11.441Z,25.40
2019-03-26T21:32:39.696Z,24.03
2019-03-26T21:35:08.850Z,21.60
2019-03-26T21:37:39.363Z,21.97
2019-03-26T21:40:10.510Z,22.60
2019-03-26T21:42:39.403Z,21.63
2019-03-26T21:45:09.914Z,15.03
2019-03-26T21:47:39.513Z,11.30
2019-03-26T21:50:08.840Z,13.30
2019-03-26T21:52:37.414Z,11.40
2019-03-26T21:55:13.106Z,12.27
2019-03-26T21:57:40.031Z,8.53
2019-03-26T22:00:09.505Z,12.80
2019-03-26T22:02:38.110Z,10.23
2019-03-26T22:05:12.752Z,11.77
2019-03-26T22:07:38.722Z,15.07
2019-03-26T22:10:08.749Z,9.00
2019-03-26T22:12:37.392Z,10.70
2019-03-26T22:15:08.924Z,10.37
2019-03-26T22:17:37.708Z,10.70
2019-03-26T22:20:08.449Z,9.13
2019-03-26T22:22:37.189Z,10.07
2019-03-26T22:25:08.976Z,10.37
2019-03-26T22:27:37.603Z,12.87
2019-03-26T22:30:09.379Z,10.33
2019-03-26T22:32:38.176Z,9.17
2019-03-26T22:35:08.662Z,9.27
2019-03-26T22:37:37.324Z,9.73
2019-03-26T22:40:08.005Z,11.27
2019-03-26T22:42:36.892Z,10.20
2019-03-26T22:45:12.387Z,8.70
2019-03-26T22:47:41.025Z,10.20
2019-03-26T22:50:11.027Z,10.27
2019-03-26T22:52:39.647Z,12.10
2019-03-26T22:55:10.247Z,10.57
2019-03-26T22:57:39.188Z,7.30
2019-03-26T23:00:13.306Z,9.40
2019-03-26T23:02:41.976Z,7.73
2019-03-26T23:05:11.448Z,11.67
2019-03-26T23:07:40.173Z,11.47
2019-03-26T23:10:10.017Z,8.97
2019-03-26T23:12:38.724Z,10.67
2019-03-26T23:15:13.045Z,19.63
2019-03-26T23:17:43.132Z,14.27
2019-03-26T23:20:11.933Z,11.97
2019-03-26T23:22:40.527Z,11.23
2019-03-26T23:25:09.544Z,6.27
2019-03-26T23:27:38.145Z,9.97
2019-03-26T23:30:08.366Z,7.33
2019-03-26T23:32:36.992Z,9.13
2019-03-26T23:35:05.698Z,7.03
2019-03-26T23:37:34.289Z,8.53
2019-03-26T23:40:02.870Z,12.83
2019-03-26T23:42:31.423Z,10.03
2019-03-26T23:45:01.242Z,12.87
2019-03-26T23:47:29.793Z,7.63
2019-03-26T23:49:58.317Z,11.27
2019-03-26T23:52:26.852Z,9.60
2019-03-26T23:54:55.384Z,9.83
2019-03-26T23:57:23.870Z,8.37
2019-03-26T23:59:52.468Z,8.40
